createdAt,value
2023-07-04T00:00:10.252Z,15.38
2023-07-04T00:02:36.569Z,15.39
2023-07-04T00:05:02.957Z,15.37
2023-07-04T00:07:29.236Z,15.32
2023-07-04T00:09:55.541Z,15.32
2023-07-04T00:12:21.805Z,15.26
2023-07-04T00:14:48.084Z,15.25
2023-07-04T00:17:14.444Z,15.29
2023-07-04T00:19:40.698Z,15.27
2023-07-04T00:22:06.974Z,15.22
2023-07-04T00:24:33.257Z,15.26
2023-07-04T00:26:59.556Z,15.26
2023-07-04T00:29:25.837Z,15.18
2023-07-04T00:31:52.091Z,15.18
2023-07-04T00:34:18.360Z,15.17
2023-07-04T00:36:44.820Z,15.20
2023-07-04T00:39:11.105Z,15.12
2023-07-04T00:41:37.372Z,15.12
2023-07-04T00:44:03.668Z,15.13
2023-07-04T00:46:29.967Z,15.10
2023-07-04T00:48:56.302Z,15.09
2023-07-04T00:51:22.612Z,15.14
2023-07-04T00:53:48.881Z,15.09
2023-07-04T00:56:15.156Z,15.11
2023-07-04T00:58:41.415Z,15.13
2023-07-04T01:01:07.665Z,15.08
2023-07-04T01:03:34.016Z,15.04
2023-07-04T01:06:00.390Z,15.06
2023-07-04T01:08:26.673Z,15.02
2023-07-04T01:10:53.278Z,15.09
2023-07-04T01:13:19.838Z,15.02
2023-07-04T01:15:46.163Z,15.03
2023-07-04T01:18:12.521Z,14.98
2023-07-04T01:20:38.788Z,14.94
2023-07-04T01:23:05.081Z,14.92
2023-07-04T01:25:31.353Z,14.96
2023-07-04T01:27:57.686Z,14.99
2023-07-04T01:30:23.990Z,15.01
2023-07-04T01:32:50.318Z,14.98
2023-07-04T01:35:16.620Z,14.98
2023-07-04T01:37:42.899Z,14.85
2023-07-04T01:40:09.184Z,14.92
2023-07-04T01:42:35.576Z,14.77
2023-07-04T01:45:01.869Z,14.80
2023-07-04T01:47:28.161Z,14.79
2023-07-04T01:49:54.460Z,14.86
2023-07-04T01:52:20.727Z,14.84
2023-07-04T01:54:47.008Z,14.88
2023-07-04T01:57:13.308Z,14.92
2023-07-04T01:59:39.579Z,14.88
2023-07-04T02:02:05.866Z,14.89
2023-07-04T02:04:32.135Z,14.87
2023-07-04T02:06:58.424Z,14.88
2023-07-04T02:09:24.696Z,14.90
2023-07-04T02:11:50.959Z,14.85
2023-07-04T02:14:17.236Z,14.85
2023-07-04T02:16:43.577Z,14.81
2023-07-04T02:19:09.943Z,14.79
2023-07-04T02:21:36.238Z,14.83
2023-07-04T02:24:02.524Z,14.81
2023-07-04T02:26:28.805Z,14.73
2023-07-04T02:28:55.105Z,14.72
2023-07-04T02:31:21.382Z,14.72
2023-07-04T02:33:47.703Z,14.61
2023-07-04T02:36:13.985Z,14.67
2023-07-04T02:38:40.328Z,14.66
2023-07-04T02:41:06.599Z,14.71
2023-07-04T02:43:32.867Z,14.75
2023-07-04T02:45:59.148Z,14.75
2023-07-04T02:48:25.430Z,14.82
2023-07-04T02:50:51.989Z,14.77
2023-07-04T02:53:18.438Z,14.83
2023-07-04T02:55:44.964Z,14.82
2023-07-04T02:58:11.268Z,14.75
2023-07-04T03:00:37.609Z,14.82
2023-07-04T03:03:04.001Z,14.90
2023-07-04T03:05:30.419Z,14.97
2023-07-04T03:07:56.717Z,15.04
2023-07-04T03:10:22.975Z,15.13
2023-07-04T03:12:49.246Z,15.22
2023-07-04T03:15:15.519Z,15.28
2023-07-04T03:17:41.901Z,15.33
2023-07-04T03:20:08.265Z,15.31
2023-07-04T03:22:34.530Z,15.35
2023-07-04T03:25:00.817Z,15.44
2023-07-04T03:27:27.103Z,15.48
2023-07-04T03:29:53.393Z,15.55
2023-07-04T03:32:19.729Z,15.56
2023-07-04T03:34:46.008Z,15.53
2023-07-04T03:37:12.276Z,15.55
2023-07-04T03:39:38.588Z,15.53
2023-07-04T03:42:04.863Z,15.39
2023-07-04T03:44:31.135Z,15.28
2023-07-04T03:46:58.481Z,15.19
2023-07-04T03:49:24.782Z,15.21
2023-07-04T03:51:51.065Z,15.11
2023-07-04T03:54:17.356Z,15.09
2023-07-04T03:56:43.645Z,14.98
2023-07-04T03:59:09.967Z,14.87
2023-07-04T04:01:36.248Z,14.80
2023-07-04T04:04:02.728Z,14.77
2023-07-04T04:06:29.104Z,14.76
2023-07-04T04:08:55.380Z,14.81
2023-07-04T04:11:21.652Z,14.91
2023-07-04T04:13:47.945Z,14.92
2023-07-04T04:16:14.343Z,14.91
2023-07-04T04:18:40.698Z,14.89
2023-07-04T04:21:06.973Z,14.86
2023-07-04T04:23:33.257Z,14.90
2023-07-04T04:25:59.553Z,14.90
2023-07-04T04:28:25.831Z,14.94
2023-07-04T04:30:52.328Z,14.93
2023-07-04T04:33:18.865Z,14.93
2023-07-04T04:35:45.159Z,14.87
2023-07-04T04:38:12.017Z,14.85
2023-07-04T04:40:39.690Z,14.88
2023-07-04T04:43:05.991Z,14.91
2023-07-04T04:45:32.298Z,14.92
2023-07-04T04:47:58.627Z,14.89
2023-07-04T04:50:24.929Z,14.88
2023-07-04T04:52:51.305Z,14.85
2023-07-04T04:55:17.608Z,14.87
2023-07-04T04:57:43.936Z,14.90
2023-07-04T05:00:10.322Z,14.88
2023-07-04T05:02:36.624Z,14.85
2023-07-04T05:05:02.951Z,14.87
2023-07-04T05:07:29.235Z,14.85
2023-07-04T05:09:55.503Z,14.87
2023-07-04T05:12:21.776Z,14.84
2023-07-04T05:14:48.057Z,14.86
2023-07-04T05:17:14.308Z,14.84
2023-07-04T05:19:41.040Z,14.80
2023-07-04T05:22:07.336Z,14.78
2023-07-04T05:24:33.606Z,14.81
2023-07-04T05:26:59.855Z,14.77
2023-07-04T05:29:26.124Z,14.77
2023-07-04T05:31:52.444Z,14.80
2023-07-04T05:34:18.749Z,14.82
2023-07-04T05:36:45.350Z,14.89
2023-07-04T05:39:11.627Z,14.90
2023-07-04T05:41:37.876Z,14.91
2023-07-04T05:44:04.234Z,14.94
2023-07-04T05:46:30.529Z,14.92
2023-07-04T05:48:56.826Z,14.95
2023-07-04T05:51:23.149Z,14.96
2023-07-04T05:53:49.417Z,14.98
2023-07-04T05:56:15.690Z,14.93
2023-07-04T05:58:41.949Z,14.86
2023-07-04T06:01:08.224Z,14.87
2023-07-04T06:03:34.620Z,14.90
2023-07-04T06:06:01.000Z,15.08
2023-07-04T06:08:27.260Z,15.21
2023-07-04T06:10:53.883Z,15.41
2023-07-04T06:13:20.374Z,15.56
2023-07-04T06:15:46.682Z,15.73
2023-07-04T06:18:13.054Z,15.95
2023-07-04T06:20:39.389Z,16.08
2023-07-04T06:23:05.673Z,16.25
2023-07-04T06:25:31.945Z,16.44
2023-07-04T06:27:58.278Z,16.63
2023-07-04T06:30:24.545Z,16.79
2023-07-04T06:32:50.937Z,16.97
2023-07-04T06:35:17.311Z,17.14
2023-07-04T06:37:43.925Z,17.28
2023-07-04T06:40:10.202Z,17.36
2023-07-04T06:42:36.487Z,17.51
2023-07-04T06:45:02.747Z,17.60
2023-07-04T06:47:29.212Z,17.72
2023-07-04T06:49:55.538Z,17.79
2023-07-04T06:52:21.819Z,17.84
2023-07-04T06:54:48.100Z,17.95
2023-07-04T06:57:14.391Z,18.05
2023-07-04T06:59:40.642Z,18.15
2023-07-04T07:02:06.923Z,18.12
2023-07-04T07:04:33.303Z,18.14
2023-07-04T07:06:59.587Z,18.04
2023-07-04T07:09:25.862Z,17.94
2023-07-04T07:11:52.140Z,18.09
2023-07-04T07:14:18.411Z,18.09
2023-07-04T07:16:44.765Z,18.25
2023-07-04T07:19:13.684Z,18.40
2023-07-04T07:21:41.634Z,18.59
2023-07-04T07:24:08.145Z,18.62
2023-07-04T07:26:34.454Z,18.79
2023-07-04T07:29:00.739Z,18.95
2023-07-04T07:33:56.252Z,19.12
2023-07-04T07:36:22.599Z,18.92
2023-07-04T07:38:48.873Z,18.82
2023-07-04T07:41:15.241Z,19.00
2023-07-04T07:43:41.659Z,18.83
2023-07-04T07:46:08.008Z,18.53
2023-07-04T07:48:34.438Z,18.52
2023-07-04T07:51:00.810Z,18.20
2023-07-04T07:53:27.376Z,18.65
2023-07-04T07:55:53.664Z,18.92
2023-07-04T07:58:19.949Z,18.93
2023-07-04T08:00:46.280Z,19.14
2023-07-04T08:03:12.810Z,19.41
2023-07-04T08:05:39.180Z,19.70
2023-07-04T08:08:05.487Z,19.74
2023-07-04T08:10:31.841Z,19.63
2023-07-04T08:12:58.126Z,19.46
2023-07-04T08:15:24.466Z,19.68
2023-07-04T08:17:50.847Z,19.84
2023-07-04T08:20:17.228Z,19.85
2023-07-04T08:22:43.637Z,20.07
2023-07-04T08:25:10.009Z,20.09
2023-07-04T08:27:36.261Z,19.94
2023-07-04T08:30:02.616Z,20.04
2023-07-04T08:32:28.993Z,20.12
2023-07-04T08:34:55.363Z,20.28
2023-07-04T08:37:21.651Z,20.18
2023-07-04T08:39:47.924Z,20.38
2023-07-04T08:42:14.201Z,20.59
2023-07-04T08:44:40.488Z,20.82
2023-07-04T08:47:06.806Z,20.89
2023-07-04T08:49:33.088Z,20.99
2023-07-04T08:51:59.364Z,21.12
2023-07-04T08:54:25.655Z,21.13
2023-07-04T08:56:51.946Z,21.22
2023-07-04T08:59:18.280Z,20.87
2023-07-04T09:01:44.602Z,20.90
2023-07-04T09:04:10.926Z,20.85
2023-07-04T09:06:37.213Z,20.95
2023-07-04T09:09:03.494Z,20.85
2023-07-04T09:11:29.786Z,20.91
2023-07-04T09:13:56.139Z,20.75
2023-07-04T09:16:22.567Z,21.06
2023-07-04T09:18:48.969Z,21.17
2023-07-04T09:21:15.247Z,21.13
2023-07-04T09:23:41.569Z,21.01
2023-07-04T09:26:07.904Z,20.95
2023-07-04T09:28:34.199Z,21.11
2023-07-04T09:31:00.547Z,21.24
2023-07-04T09:33:26.874Z,21.23
2023-07-04T09:35:53.162Z,20.99
2023-07-04T09:38:19.461Z,21.33
2023-07-04T09:40:45.884Z,21.37
2023-07-04T09:43:12.326Z,21.46
2023-07-04T09:45:38.750Z,21.84
2023-07-04T09:48:05.093Z,22.12
2023-07-04T09:50:31.403Z,22.37
2023-07-04T09:52:57.707Z,22.30
2023-07-04T09:55:24.014Z,22.45
2023-07-04T09:57:50.285Z,22.63
2023-07-04T10:00:16.568Z,22.71
2023-07-04T10:02:42.906Z,22.65
2023-07-04T10:05:09.283Z,22.58
2023-07-04T10:07:35.565Z,22.53
2023-07-04T10:10:01.846Z,22.29
2023-07-04T10:12:28.778Z,22.14
2023-07-04T10:14:56.192Z,22.45
2023-07-04T10:17:22.707Z,22.27
2023-07-04T10:19:49.118Z,22.44
2023-07-04T10:22:15.398Z,22.16
2023-07-04T10:24:41.667Z,22.10
2023-07-04T10:27:07.945Z,22.21
2023-07-04T10:29:34.230Z,22.22
2023-07-04T10:32:00.529Z,22.41
2023-07-04T10:34:26.808Z,22.57
2023-07-04T10:36:53.074Z,22.67
2023-07-04T10:39:19.353Z,23.00
2023-07-04T10:41:45.649Z,23.11
2023-07-04T10:44:11.967Z,22.88
2023-07-04T10:46:38.307Z,22.78
2023-07-04T10:49:04.644Z,22.89
2023-07-04T10:51:30.916Z,22.69
2023-07-04T10:53:57.275Z,22.60
2023-07-04T10:56:23.552Z,22.67
2023-07-04T10:58:49.824Z,22.91
2023-07-04T11:01:16.142Z,23.28
2023-07-04T11:03:42.516Z,22.90
2023-07-04T11:06:08.826Z,23.02
2023-07-04T11:08:35.101Z,23.33
2023-07-04T11:11:01.401Z,23.08
2023-07-04T11:13:27.750Z,23.18
2023-07-04T11:15:54.021Z,23.23
2023-07-04T11:18:20.312Z,23.25
2023-07-04T11:20:46.569Z,23.31
2023-07-04T11:23:12.896Z,23.64
2023-07-04T11:25:39.194Z,23.69
2023-07-04T11:28:05.464Z,23.97
2023-07-04T11:30:31.822Z,23.97
2023-07-04T11:32:58.230Z,23.89
2023-07-04T11:35:24.501Z,24.01
2023-07-04T11:37:50.828Z,24.17
2023-07-04T11:40:17.105Z,24.18
2023-07-04T11:42:43.398Z,24.14
2023-07-04T11:45:09.705Z,24.15
2023-07-04T11:47:38.324Z,24.29
2023-07-04T11:50:06.326Z,24.55
2023-07-04T11:52:32.587Z,24.40
2023-07-04T11:54:58.864Z,24.60
2023-07-04T11:57:25.222Z,24.85
2023-07-04T11:59:51.516Z,24.79
2023-07-04T12:02:17.842Z,24.63
2023-07-04T12:04:44.170Z,24.43
2023-07-04T12:07:10.471Z,24.12
2023-07-04T12:09:37.922Z,24.33
2023-07-04T12:12:05.375Z,24.58
2023-07-04T12:14:31.656Z,24.67
2023-07-04T12:16:57.932Z,24.62
2023-07-04T12:19:24.220Z,24.71
2023-07-04T12:21:50.535Z,24.85
2023-07-04T12:24:16.809Z,25.14
2023-07-04T12:26:43.100Z,25.05
2023-07-04T12:29:16.719Z,25.14
2023-07-04T12:31:43.496Z,25.20
2023-07-04T12:34:10.238Z,25.18
2023-07-04T12:36:36.688Z,25.22
2023-07-04T12:39:03.008Z,24.98
2023-07-04T12:41:29.261Z,24.96
2023-07-04T12:51:23.091Z,25.04
2023-07-04T12:53:49.435Z,25.12
2023-07-04T12:56:15.686Z,25.33
2023-07-04T12:58:42.009Z,25.20
2023-07-04T13:01:09.699Z,25.32
2023-07-04T13:03:36.110Z,25.09
2023-07-04T13:06:02.453Z,25.07
2023-07-04T13:08:28.737Z,25.30
2023-07-04T13:10:55.148Z,25.38
2023-07-04T13:13:22.560Z,25.38
2023-07-04T13:15:48.955Z,25.39
2023-07-04T13:18:15.230Z,25.34
2023-07-04T13:20:41.478Z,25.38
2023-07-04T13:30:22.056Z,25.01
2023-07-04T13:33:21.547Z,24.96
2023-07-04T13:35:47.837Z,25.07
2023-07-04T13:40:43.286Z,25.41
2023-07-04T13:45:38.799Z,25.70
2023-07-04T13:48:05.115Z,25.69
2023-07-04T13:50:31.440Z,26.01
2023-07-04T13:53:12.785Z,26.35
2023-07-04T13:55:40.348Z,26.55
2023-07-04T13:58:06.697Z,26.41
2023-07-04T14:00:55.276Z,26.66
2023-07-04T14:05:55.235Z,26.92
2023-07-04T14:08:24.567Z,26.86
2023-07-04T14:10:50.837Z,26.76
2023-07-04T14:13:17.201Z,26.83
2023-07-04T14:20:41.928Z,26.67
2023-07-04T14:23:08.290Z,26.59
2023-07-04T14:25:34.584Z,26.56
2023-07-04T14:28:00.940Z,26.56
2023-07-04T14:30:27.255Z,26.34
2023-07-04T14:32:53.572Z,26.55
2023-07-04T14:35:19.884Z,26.43
2023-07-04T14:37:46.191Z,26.55
2023-07-04T14:42:30.119Z,26.38
2023-07-04T14:42:58.751Z,25.98
2023-07-04T14:45:25.017Z,25.81
2023-07-04T14:47:51.360Z,25.76
2023-07-04T14:50:17.676Z,25.89
2023-07-04T14:52:43.933Z,26.16
2023-07-04T14:55:10.209Z,26.34
2023-07-04T14:57:36.527Z,26.49
2023-07-04T15:00:02.777Z,26.61
2023-07-04T15:02:29.111Z,26.90
2023-07-04T15:04:55.411Z,26.87
2023-07-04T15:07:21.688Z,26.76
2023-07-04T15:09:47.977Z,26.57
2023-07-04T15:12:14.258Z,26.84
2023-07-04T15:14:40.525Z,26.92
2023-07-04T15:17:06.772Z,26.63
2023-07-04T15:19:33.140Z,26.74
2023-07-04T15:21:59.554Z,26.76
2023-07-04T15:24:26.976Z,26.62
2023-07-04T15:26:53.363Z,26.40
2023-07-04T15:29:19.652Z,26.63
2023-07-04T15:31:45.962Z,26.51
2023-07-04T15:34:12.251Z,26.52
2023-07-04T15:36:38.527Z,26.87
2023-07-04T15:39:04.802Z,26.82
2023-07-04T15:41:31.144Z,26.65
2023-07-04T15:43:57.454Z,26.45
2023-07-04T15:46:25.337Z,26.59
2023-07-04T15:48:53.455Z,26.67
2023-07-04T15:51:19.784Z,26.58
2023-07-04T15:53:46.064Z,26.35
2023-07-04T15:56:12.385Z,26.41
2023-07-04T15:58:38.690Z,26.61
2023-07-04T16:01:05.010Z,26.58
2023-07-04T16:03:31.584Z,26.91
2023-07-04T16:05:58.111Z,26.91
2023-07-04T16:08:24.386Z,26.92
2023-07-04T16:10:50.633Z,26.99
2023-07-04T16:13:16.933Z,26.96
2023-07-04T16:15:43.198Z,26.86
2023-07-04T16:18:09.591Z,27.02
2023-07-04T16:20:35.929Z,27.17
2023-07-04T16:23:02.241Z,26.98
2023-07-04T16:25:28.510Z,27.30
2023-07-04T16:27:54.787Z,27.06
2023-07-04T16:30:21.048Z,27.18
2023-07-04T16:32:47.328Z,27.06
2023-07-04T16:35:13.733Z,26.63
2023-07-04T16:37:40.006Z,26.68
2023-07-04T16:40:06.288Z,27.05
2023-07-04T16:42:32.612Z,26.60
2023-07-04T16:44:58.905Z,26.88
2023-07-04T16:47:25.231Z,26.50
2023-07-04T16:49:51.584Z,26.74
2023-07-04T16:52:17.881Z,26.91
2023-07-04T16:54:44.149Z,26.81
2023-07-04T16:57:10.418Z,26.76
2023-07-04T16:59:36.696Z,26.87
2023-07-04T17:02:03.014Z,26.60
2023-07-04T17:04:29.346Z,26.86
2023-07-04T17:06:55.608Z,26.95
2023-07-04T17:09:22.933Z,26.72
2023-07-04T17:11:49.327Z,26.96
2023-07-04T17:14:15.707Z,26.69
2023-07-04T17:16:42.075Z,26.58
2023-07-04T17:19:08.395Z,26.45
2023-07-04T17:21:34.658Z,26.59
2023-07-04T17:24:00.930Z,26.37
2023-07-04T17:26:27.197Z,26.30
2023-07-04T17:28:53.563Z,26.50
2023-07-04T17:31:19.941Z,26.63
2023-07-04T17:33:46.245Z,26.76
2023-07-04T17:36:12.509Z,26.96
2023-07-04T17:38:38.761Z,27.20
2023-07-04T17:41:05.019Z,26.90
2023-07-04T17:43:31.311Z,26.52
2023-07-04T17:45:57.597Z,26.44
2023-07-04T17:48:23.919Z,26.54
2023-07-04T17:50:50.179Z,26.54
2023-07-04T17:53:16.451Z,26.26
2023-07-04T17:55:42.712Z,25.42
2023-07-04T17:58:08.999Z,25.72
2023-07-04T18:00:35.269Z,25.56
2023-07-04T18:03:01.675Z,25.33
2023-07-04T18:05:28.007Z,25.17
2023-07-04T18:07:54.298Z,24.87
2023-07-04T18:10:20.564Z,24.93
2023-07-04T18:12:46.863Z,24.96
2023-07-04T18:15:13.114Z,24.63
2023-07-04T18:17:39.423Z,24.44
2023-07-04T18:20:05.741Z,24.36
2023-07-04T18:22:32.015Z,24.13
2023-07-04T18:24:58.283Z,24.06
2023-07-04T18:27:24.560Z,24.25
2023-07-04T18:29:50.817Z,24.11
2023-07-04T18:32:17.071Z,24.17
2023-07-04T18:34:43.326Z,23.99
2023-07-04T18:37:09.590Z,24.00
2023-07-04T18:39:35.858Z,24.06
2023-07-04T18:42:02.120Z,23.88
2023-07-04T18:44:28.427Z,23.70
2023-07-04T18:46:54.864Z,23.62
2023-07-04T18:49:21.194Z,23.61
2023-07-04T18:51:47.459Z,23.68
2023-07-04T18:54:13.722Z,23.68
2023-07-04T18:56:39.981Z,23.63
2023-07-04T18:59:06.273Z,23.51
2023-07-04T19:01:32.685Z,23.52
2023-07-04T19:03:59.158Z,23.47
2023-07-04T19:06:25.463Z,23.37
2023-07-04T19:08:51.727Z,23.08
2023-07-04T19:11:17.992Z,22.95
2023-07-04T19:13:44.333Z,22.77
2023-07-04T19:16:10.710Z,22.66
2023-07-04T19:18:37.194Z,22.63
2023-07-04T19:21:03.606Z,22.48
2023-07-04T19:23:29.888Z,22.39
2023-07-04T19:25:56.154Z,22.26
2023-07-04T19:28:22.423Z,22.19
2023-07-04T19:30:48.698Z,22.07
2023-07-04T19:33:16.157Z,21.97
2023-07-04T19:35:44.655Z,21.80
2023-07-04T19:38:10.941Z,21.62
2023-07-04T19:40:37.210Z,21.60
2023-07-04T19:43:03.503Z,21.48
2023-07-04T19:45:29.784Z,21.30
2023-07-04T19:47:56.086Z,21.21
2023-07-04T19:50:22.379Z,21.24
2023-07-04T19:52:48.649Z,21.15
2023-07-04T19:55:14.926Z,21.07
2023-07-04T19:57:41.189Z,20.87
2023-07-04T20:00:07.472Z,20.74
2023-07-04T20:02:33.950Z,20.64
2023-07-04T20:05:00.272Z,20.59
2023-07-04T20:07:26.595Z,20.51
2023-07-04T20:09:52.869Z,20.43
2023-07-04T20:12:19.161Z,20.31
2023-07-04T20:14:45.614Z,20.18
2023-07-04T20:17:11.916Z,20.14
2023-07-04T20:19:38.190Z,20.08
2023-07-04T20:22:04.466Z,19.97
2023-07-04T20:24:30.749Z,19.94
2023-07-04T20:26:57.007Z,19.87
2023-07-04T20:29:23.292Z,19.81
2023-07-04T20:31:49.558Z,19.84
2023-07-04T20:34:15.828Z,19.77
2023-07-04T20:36:42.089Z,19.68
2023-07-04T20:39:08.362Z,19.55
2023-07-04T20:41:34.657Z,19.53
2023-07-04T20:44:00.927Z,19.54
2023-07-04T20:46:27.232Z,19.61
2023-07-04T20:48:53.509Z,19.52
2023-07-04T20:51:19.792Z,19.53
2023-07-04T20:53:46.042Z,19.47
2023-07-04T20:56:12.337Z,19.50
2023-07-04T20:58:38.616Z,19.40
2023-07-04T21:01:04.941Z,19.27
2023-07-04T21:03:31.420Z,19.22
2023-07-04T21:05:57.772Z,19.21
2023-07-04T21:08:24.042Z,19.18
2023-07-04T21:10:50.323Z,19.15
2023-07-04T21:13:16.629Z,19.14
2023-07-04T21:15:43.159Z,18.99
2023-07-04T21:18:09.508Z,18.91
2023-07-04T21:20:35.784Z,18.75
2023-07-04T21:23:02.053Z,18.75
2023-07-04T21:25:28.689Z,18.73
2023-07-04T21:27:54.952Z,18.70
2023-07-04T21:30:21.240Z,18.60
2023-07-04T21:32:47.501Z,18.56
2023-07-04T21:35:13.796Z,18.44
2023-07-04T21:37:40.061Z,18.41
2023-07-04T21:40:06.362Z,18.32
2023-07-04T21:42:32.647Z,18.43
2023-07-04T21:44:58.931Z,18.42
2023-07-04T21:47:25.260Z,18.42
2023-07-04T21:49:51.538Z,18.39
2023-07-04T21:52:17.820Z,18.31
2023-07-04T21:54:45.377Z,18.29
2023-07-04T21:57:11.897Z,18.22
2023-07-04T21:59:38.150Z,18.23
2023-07-04T22:02:04.446Z,18.18
2023-07-04T22:04:30.745Z,18.20
2023-07-04T22:06:59.203Z,18.24
2023-07-04T22:09:25.894Z,18.19
2023-07-04T22:11:52.228Z,18.14
2023-07-04T22:14:31.984Z,18.18
2023-07-04T22:17:03.933Z,18.11
2023-07-04T22:19:30.267Z,18.06
2023-07-04T22:21:56.525Z,17.92
2023-07-04T22:24:22.789Z,17.82
2023-07-04T22:26:49.053Z,17.71
2023-07-04T22:29:15.410Z,17.72
2023-07-04T22:31:41.687Z,17.71
2023-07-04T22:34:07.980Z,17.68
2023-07-04T22:36:34.271Z,17.64
2023-07-04T22:39:00.555Z,17.64
2023-07-04T22:41:26.831Z,17.52
2023-07-04T22:43:53.117Z,17.45
2023-07-04T22:46:19.423Z,17.41
2023-07-04T22:48:45.714Z,17.44
2023-07-04T22:51:11.995Z,17.43
2023-07-04T22:53:38.271Z,17.39
2023-07-04T22:56:04.556Z,17.48
2023-07-04T22:58:30.839Z,17.42
2023-07-04T23:00:57.113Z,17.34
2023-07-04T23:03:23.463Z,17.33
2023-07-04T23:05:49.766Z,17.39
2023-07-04T23:08:16.039Z,17.40
2023-07-04T23:10:42.317Z,17.47
2023-07-04T23:13:08.581Z,17.46
2023-07-04T23:15:34.840Z,17.23
2023-07-04T23:18:01.262Z,17.11
2023-07-04T23:20:27.649Z,17.03
2023-07-04T23:22:53.937Z,16.96
2023-07-04T23:25:20.201Z,16.91
2023-07-04T23:27:46.481Z,16.91
2023-07-04T23:30:12.755Z,16.93
2023-07-04T23:32:39.107Z,17.01
2023-07-04T23:35:05.627Z,17.06
2023-07-04T23:37:31.938Z,17.02
2023-07-04T23:39:58.224Z,16.92
2023-07-04T23:42:24.485Z,16.93
2023-07-04T23:44:50.774Z,17.00
2023-07-04T23:47:17.055Z,17.06
2023-07-04T23:49:43.556Z,17.14
2023-07-04T23:52:09.869Z,17.14
2023-07-04T23:54:36.141Z,17.11
2023-07-04T23:57:02.413Z,17.04
2023-07-04T23:59:28.666Z,17.15
